createdAt,value
2022-10-05T00:01:35.835Z,78860.13
2022-10-05T00:04:19.523Z,78854.75
2022-10-05T00:07:13.830Z,78858.06
2022-10-05T00:09:46.837Z,78848.25
2022-10-05T00:12:22.402Z,78839.09
2022-10-05T00:14:54.786Z,78849.91
2022-10-05T00:17:31.890Z,78851.09
2022-10-05T00:20:01.158Z,78848.97
2022-10-05T00:22:35.098Z,78859.91
2022-10-05T00:25:14.660Z,78849.13
2022-10-05T00:27:44.711Z,78857.50
2022-10-05T00:30:19.570Z,78820.94
2022-10-05T00:32:49.244Z,78855.25
2022-10-05T00:35:19.707Z,78865.03
2022-10-05T00:37:54.814Z,78854.22
2022-10-05T00:41:07.953Z,78866.19
2022-10-05T00:44:12.331Z,78857.28
2022-10-05T00:47:19.339Z,78866.88
2022-10-05T00:50:11.989Z,78852.63
2022-10-05T00:53:05.770Z,78863.03
2022-10-05T00:56:14.814Z,78854.97
2022-10-05T00:59:21.343Z,78866.41
2022-10-05T01:02:13.991Z,78872.63
2022-10-05T01:04:50.631Z,78869.53
2022-10-05T01:07:34.127Z,78868.94
2022-10-05T01:10:23.743Z,78867.06
2022-10-05T01:13:17.133Z,78868.34
2022-10-05T01:16:05.161Z,78860.06
2022-10-05T01:18:49.699Z,78869.81
2022-10-05T01:21:26.341Z,78864.81
2022-10-05T01:24:20.507Z,78877.00
2022-10-05T01:27:16.948Z,78870.41
2022-10-05T01:30:18.148Z,78874.84
2022-10-05T01:33:24.244Z,78881.19
2022-10-05T01:36:14.566Z,78876.09
2022-10-05T01:38:58.490Z,78873.53
2022-10-05T01:41:59.961Z,78868.13
2022-10-05T01:44:42.044Z,78877.31
2022-10-05T01:47:27.883Z,78865.50
2022-10-05T01:50:03.853Z,78877.78
2022-10-05T01:53:07.664Z,78848.63
2022-10-05T01:56:02.688Z,78880.34
2022-10-05T01:58:49.990Z,78887.25
2022-10-05T02:02:03.203Z,78876.66
2022-10-05T02:05:01.500Z,78881.56
2022-10-05T02:07:54.512Z,78886.69
2022-10-05T02:10:46.190Z,78892.41
2022-10-05T02:13:45.094Z,78884.59
2022-10-05T02:16:25.013Z,78882.75
2022-10-05T02:19:00.787Z,78885.63
2022-10-05T02:21:34.997Z,78897.13
2022-10-05T02:24:14.241Z,78897.25
2022-10-05T02:26:44.288Z,78885.25
2022-10-05T02:29:16.821Z,78886.91
2022-10-05T02:31:50.637Z,78891.88
2022-10-05T02:34:30.666Z,78876.41
2022-10-05T02:37:41.602Z,78892.28
2022-10-05T02:40:25.436Z,78897.63
2022-10-05T02:42:58.235Z,78892.13
2022-10-05T02:45:38.112Z,78889.84
2022-10-05T02:48:17.132Z,78893.75
2022-10-05T02:50:52.677Z,78889.19
2022-10-05T02:53:40.429Z,78896.00
2022-10-05T02:56:29.442Z,78891.38
2022-10-05T02:59:25.757Z,78906.97
2022-10-05T03:02:21.337Z,78893.63
2022-10-05T03:05:15.681Z,78884.47
2022-10-05T03:08:03.577Z,78906.97
2022-10-05T03:10:55.212Z,78898.44
2022-10-05T03:13:56.823Z,78904.56
2022-10-05T03:16:37.626Z,78910.75
2022-10-05T03:19:39.890Z,78910.63
2022-10-05T03:22:28.623Z,78908.94
2022-10-05T03:25:26.649Z,78917.19
2022-10-05T03:28:17.801Z,78915.34
2022-10-05T03:30:55.793Z,78908.56
2022-10-05T03:33:49.438Z,78889.25
2022-10-05T03:36:39.227Z,78909.06
2022-10-05T03:39:23.211Z,78914.66
2022-10-05T03:42:20.207Z,78907.78
2022-10-05T03:45:22.869Z,78924.38
2022-10-05T03:48:04.753Z,78925.13
2022-10-05T03:50:35.924Z,78925.50
2022-10-05T03:53:16.566Z,78908.72
2022-10-05T03:55:56.885Z,78924.53
2022-10-05T03:59:02.927Z,78925.63
2022-10-05T04:01:59.151Z,78905.59
2022-10-05T04:04:40.454Z,78917.44
2022-10-05T04:07:20.035Z,78926.59
2022-10-05T04:09:54.077Z,78914.81
2022-10-05T04:12:24.187Z,78928.25
2022-10-05T04:15:05.030Z,78934.38
2022-10-05T04:17:42.102Z,78926.91
2022-10-05T04:20:27.213Z,78932.97
2022-10-05T04:23:19.987Z,78932.72
2022-10-05T04:26:03.699Z,78923.63
2022-10-05T04:28:51.169Z,78936.13
2022-10-05T04:31:58.887Z,78930.69
2022-10-05T04:34:40.273Z,78941.88
2022-10-05T04:37:19.190Z,78943.06
2022-10-05T04:40:06.124Z,78942.19
2022-10-05T04:42:47.129Z,78946.00
2022-10-05T04:45:52.323Z,78928.81
2022-10-05T04:48:59.484Z,78946.69
2022-10-05T04:51:51.011Z,78927.63
2022-10-05T04:54:42.871Z,78948.53
2022-10-05T04:57:19.206Z,78934.59
2022-10-05T05:00:10.993Z,78949.00
2022-10-05T05:03:07.704Z,78946.31
2022-10-05T05:06:18.029Z,78950.50
2022-10-05T05:09:13.354Z,78950.47
2022-10-05T05:12:19.657Z,78947.66
2022-10-05T05:15:13.204Z,78947.13
2022-10-05T05:18:01.032Z,78944.78
2022-10-05T05:20:33.130Z,78946.19
2022-10-05T05:23:29.702Z,78948.50
2022-10-05T05:26:01.847Z,78942.41
2022-10-05T05:28:53.103Z,78943.13
2022-10-05T05:31:38.532Z,78936.78
2022-10-05T05:34:43.977Z,78933.00
2022-10-05T05:37:41.095Z,78900.56
2022-10-05T05:40:24.669Z,78937.44
2022-10-05T05:43:00.086Z,78932.06
2022-10-05T05:45:47.989Z,78936.91
2022-10-05T05:48:38.965Z,78939.22
2022-10-05T05:51:20.367Z,78927.56
2022-10-05T05:53:52.136Z,78928.22
2022-10-05T05:56:37.871Z,78920.13
2022-10-05T05:59:21.254Z,78930.16
2022-10-05T06:01:56.560Z,78898.88
2022-10-05T06:04:28.957Z,78927.22
2022-10-05T06:07:02.527Z,78910.88
2022-10-05T06:09:47.171Z,78923.84
2022-10-05T06:12:50.451Z,78919.22
2022-10-05T06:15:48.582Z,78915.53
2022-10-05T06:18:22.308Z,78922.97
2022-10-05T06:20:57.152Z,78925.88
2022-10-05T06:23:45.046Z,78921.91
2022-10-05T06:26:32.260Z,78927.19
2022-10-05T06:29:10.345Z,78913.03
2022-10-05T06:32:05.460Z,78911.06
2022-10-05T06:34:59.076Z,78902.66
2022-10-05T06:38:00.936Z,78899.00
2022-10-05T06:40:54.317Z,78901.00
2022-10-05T06:43:37.227Z,78894.88
2022-10-05T06:46:42.358Z,78896.44
2022-10-05T06:50:03.854Z,78896.75
2022-10-05T06:53:37.882Z,78893.38
2022-10-05T06:56:27.033Z,78890.16
2022-10-05T06:59:11.372Z,78884.41
2022-10-05T07:01:43.426Z,78890.88
2022-10-05T07:04:43.097Z,78896.78
2022-10-05T07:07:19.930Z,78884.03
2022-10-05T07:09:58.130Z,78880.59
2022-10-05T07:13:17.047Z,78883.06
2022-10-05T07:16:05.386Z,78870.44
2022-10-05T07:19:13.250Z,78870.81
2022-10-05T07:22:16.372Z,78861.91
2022-10-05T07:25:17.567Z,78851.53
2022-10-05T07:28:14.759Z,78859.31
2022-10-05T07:30:58.379Z,78833.38
2022-10-05T07:33:34.657Z,78838.91
2022-10-05T07:36:44.328Z,78838.03
2022-10-05T07:39:55.331Z,78850.53
2022-10-05T07:42:48.747Z,78839.38
2022-10-05T07:45:52.649Z,78830.84
2022-10-05T07:48:54.061Z,78836.13
2022-10-05T07:51:43.426Z,78813.72
2022-10-05T07:54:47.686Z,78825.16
2022-10-05T07:57:39.643Z,78817.69
2022-10-05T08:00:17.451Z,78803.03
2022-10-05T08:03:32.786Z,78810.22
2022-10-05T08:06:04.268Z,78805.28
2022-10-05T08:08:58.136Z,78816.28
2022-10-05T08:11:41.749Z,78804.66
2022-10-05T08:14:16.480Z,78796.03
2022-10-05T08:16:50.597Z,78796.94
2022-10-05T08:19:36.995Z,78801.22
2022-10-05T08:22:14.608Z,78778.78
2022-10-05T08:24:54.579Z,78777.34
2022-10-05T08:27:53.662Z,78784.94
2022-10-05T08:30:22.951Z,78769.88
2022-10-05T08:33:08.814Z,78786.53
2022-10-05T08:35:44.779Z,78773.63
2022-10-05T08:38:26.698Z,78776.34
2022-10-05T08:41:08.263Z,78774.91
2022-10-05T08:43:56.168Z,78769.09
2022-10-05T08:47:01.934Z,78771.66
2022-10-05T08:49:56.087Z,78745.50
2022-10-05T08:52:54.304Z,78745.16
2022-10-05T08:56:02.377Z,78756.66
2022-10-05T08:58:34.458Z,78757.94
2022-10-05T09:01:06.335Z,78745.97
2022-10-05T09:04:12.446Z,78747.50
2022-10-05T09:07:12.321Z,78739.28
2022-10-05T09:10:18.378Z,78737.28
2022-10-05T09:13:27.383Z,78722.59
2022-10-05T09:16:33.257Z,78736.31
2022-10-05T09:19:16.810Z,78721.97
2022-10-05T09:22:13.528Z,78733.78
2022-10-05T09:25:14.692Z,78732.34
2022-10-05T09:28:24.729Z,78725.53
2022-10-05T09:31:00.187Z,78722.84
2022-10-05T09:33:44.179Z,78722.03
2022-10-05T09:36:33.930Z,78711.09
2022-10-05T09:39:30.237Z,78713.84
2022-10-05T09:42:11.319Z,78714.88
2022-10-05T09:44:55.719Z,78707.44
2022-10-05T09:47:34.216Z,78718.56
2022-10-05T09:50:33.792Z,78711.69
2022-10-05T09:53:28.741Z,78711.63
2022-10-05T09:56:15.735Z,78705.38
2022-10-05T09:59:07.662Z,78703.19
2022-10-05T10:01:42.481Z,78706.16
2022-10-05T10:04:49.634Z,78703.50
2022-10-05T10:07:42.586Z,78704.41
2022-10-05T10:10:18.338Z,78707.56
2022-10-05T10:13:09.361Z,78705.25
2022-10-05T10:16:00.579Z,78701.16
2022-10-05T10:19:05.771Z,78710.59
2022-10-05T10:21:37.815Z,78706.59
2022-10-05T10:24:25.062Z,78704.47
2022-10-05T10:27:14.278Z,78705.09
2022-10-05T10:30:19.873Z,78699.75
2022-10-05T10:32:59.551Z,78694.44
2022-10-05T10:35:42.172Z,78701.88
2022-10-05T10:38:28.764Z,78706.44
2022-10-05T10:41:32.658Z,78693.91
2022-10-05T10:44:29.607Z,78704.75
2022-10-05T10:47:23.407Z,78697.19
2022-10-05T10:49:56.788Z,78700.69
2022-10-05T10:53:04.066Z,78711.06
2022-10-05T10:55:40.310Z,78693.56
2022-10-05T10:58:36.838Z,78705.13
2022-10-05T11:01:26.981Z,78701.25
2022-10-05T11:04:10.967Z,78689.16
2022-10-05T11:07:02.333Z,78697.88
2022-10-05T11:09:52.913Z,78694.69
2022-10-05T11:12:53.302Z,78691.97
2022-10-05T11:15:44.454Z,78690.34
2022-10-05T11:18:43.043Z,78687.25
2022-10-05T11:21:35.427Z,78691.03
2022-10-05T11:24:56.414Z,78689.81
2022-10-05T11:27:35.687Z,78694.53
2022-10-05T11:30:22.370Z,78677.56
2022-10-05T11:33:14.446Z,78698.47
2022-10-05T11:36:01.520Z,78690.16
2022-10-05T11:38:44.209Z,78679.69
2022-10-05T11:41:27.274Z,78682.34
2022-10-05T11:44:23.832Z,78683.63
2022-10-05T11:47:29.295Z,78684.91
2022-10-05T11:50:07.049Z,78680.16
2022-10-05T11:52:39.258Z,78677.91
2022-10-05T11:55:37.768Z,78677.94
2022-10-05T11:58:46.252Z,78663.53
2022-10-05T12:01:22.166Z,78677.16
2022-10-05T12:04:32.629Z,78655.91
2022-10-05T12:07:33.665Z,78680.47
2022-10-05T12:10:25.304Z,78671.13
2022-10-05T12:13:09.788Z,78676.56
2022-10-05T12:15:49.452Z,78674.47
2022-10-05T12:18:35.017Z,78674.81
2022-10-05T12:21:28.685Z,78679.63
2022-10-05T12:24:26.859Z,78682.91
2022-10-05T12:27:03.548Z,78676.06
2022-10-05T12:29:47.477Z,78663.03
2022-10-05T12:32:26.293Z,78652.91
2022-10-05T12:35:02.028Z,78683.41
2022-10-05T12:37:53.170Z,78686.78
2022-10-05T12:40:28.575Z,78668.41
2022-10-05T12:43:06.707Z,78672.81
2022-10-05T12:45:55.234Z,78684.81
2022-10-05T12:48:27.214Z,78691.56
2022-10-05T12:51:02.910Z,78679.50
2022-10-05T12:53:58.402Z,78688.00
2022-10-05T12:56:52.312Z,78691.69
2022-10-05T12:59:48.988Z,78683.06
2022-10-05T13:02:43.903Z,78679.88
2022-10-05T13:05:13.724Z,78688.16
2022-10-05T13:07:59.917Z,78664.97
2022-10-05T13:10:29.197Z,78689.50
2022-10-05T13:13:16.749Z,78689.75
2022-10-05T13:16:05.695Z,78686.00
2022-10-05T13:19:09.367Z,78691.63
2022-10-05T13:21:48.449Z,78687.88
2022-10-05T13:24:44.038Z,78682.31
2022-10-05T13:27:31.920Z,78691.94
2022-10-05T13:30:20.713Z,78695.22
2022-10-05T13:33:08.486Z,78683.88
2022-10-05T13:35:56.123Z,78692.94
2022-10-05T13:38:47.100Z,78701.00
2022-10-05T13:41:42.188Z,78689.84
2022-10-05T13:44:21.740Z,78698.38
2022-10-05T13:47:10.114Z,78685.84
2022-10-05T13:49:59.626Z,78702.56
2022-10-05T13:53:04.926Z,78707.06
2022-10-05T13:55:38.247Z,78714.41
2022-10-05T13:58:34.745Z,78716.91
2022-10-05T14:01:11.861Z,78714.81
2022-10-05T14:03:42.828Z,78713.56
2022-10-05T14:06:32.395Z,78721.53
2022-10-05T14:09:01.458Z,78706.31
2022-10-05T14:11:37.980Z,78717.56
2022-10-05T14:14:32.331Z,78728.88
2022-10-05T14:17:07.608Z,78724.34
2022-10-05T14:19:53.207Z,78725.06
2022-10-05T14:22:25.229Z,78701.16
2022-10-05T14:25:19.693Z,78725.06
2022-10-05T14:28:06.856Z,78733.72
2022-10-05T14:30:37.987Z,78733.63
2022-10-05T14:33:30.246Z,78731.53
2022-10-05T14:36:08.007Z,78726.53
2022-10-05T14:39:03.206Z,78733.63
2022-10-05T14:41:55.208Z,78740.47
2022-10-05T14:44:27.784Z,78743.16
2022-10-05T14:47:16.507Z,78731.28
2022-10-05T14:50:16.976Z,78741.38
2022-10-05T14:53:11.754Z,78741.63
2022-10-05T14:56:26.615Z,78746.72
2022-10-05T14:58:56.669Z,78744.97
2022-10-05T15:01:32.579Z,78747.41
2022-10-05T15:04:35.626Z,78726.66
2022-10-05T15:07:23.101Z,78736.19
2022-10-05T15:10:07.048Z,78742.78
2022-10-05T15:12:47.728Z,78749.75
2022-10-05T15:15:39.175Z,78749.19
2022-10-05T15:18:20.616Z,78748.25
2022-10-05T15:21:10.946Z,78756.31
2022-10-05T15:23:50.266Z,78745.84
2022-10-05T15:26:40.675Z,78752.53
2022-10-05T15:29:38.455Z,78748.22
2022-10-05T15:32:20.837Z,78719.97
2022-10-05T15:34:59.491Z,78759.28
2022-10-05T15:37:44.087Z,78740.09
2022-10-05T15:40:29.159Z,78739.72
2022-10-05T15:43:05.182Z,78730.13
2022-10-05T15:45:38.898Z,78755.19
2022-10-05T15:48:40.253Z,78754.53
2022-10-05T15:51:51.180Z,78765.31
2022-10-05T15:54:56.007Z,78759.50
2022-10-05T15:57:37.373Z,78760.88
2022-10-05T16:00:18.366Z,78765.03
2022-10-05T16:03:16.452Z,78747.81
2022-10-05T16:06:28.018Z,78760.50
2022-10-05T16:09:04.498Z,78764.59
2022-10-05T16:11:53.146Z,78773.41
2022-10-05T16:14:47.288Z,78767.47
2022-10-05T16:17:34.739Z,78765.56
2022-10-05T16:20:31.261Z,78773.69
2022-10-05T16:23:14.339Z,78765.19
2022-10-05T16:25:52.721Z,78771.00
2022-10-05T16:28:58.843Z,78774.28
2022-10-05T16:31:41.492Z,78757.59
2022-10-05T16:34:25.120Z,78769.63
2022-10-05T16:37:40.333Z,78768.97
2022-10-05T16:40:34.140Z,78757.66
2022-10-05T16:43:31.178Z,78771.41
2022-10-05T16:46:15.432Z,78768.84
2022-10-05T16:49:08.625Z,78768.84
2022-10-05T16:52:05.770Z,78752.41
2022-10-05T16:54:47.528Z,78758.31
2022-10-05T16:57:34.406Z,78766.50
2022-10-05T17:00:25.562Z,78754.72
2022-10-05T17:03:11.124Z,78776.34
2022-10-05T17:06:07.439Z,78772.03
2022-10-05T17:08:51.264Z,78767.91
2022-10-05T17:11:29.344Z,78767.84
2022-10-05T17:14:33.330Z,78764.28
2022-10-05T17:17:18.345Z,78769.00
2022-10-05T17:19:56.889Z,78766.63
2022-10-05T17:22:40.766Z,78748.00
2022-10-05T17:25:23.399Z,78762.66
2022-10-05T17:28:22.055Z,78762.63
2022-10-05T17:31:07.016Z,78764.06
2022-10-05T17:33:56.355Z,78772.66
2022-10-05T17:36:45.446Z,78775.06
2022-10-05T17:39:24.566Z,78762.84
2022-10-05T17:41:55.326Z,78769.78
2022-10-05T17:44:25.878Z,78745.13
2022-10-05T17:46:57.773Z,78779.81
2022-10-05T17:50:13.806Z,78775.22
2022-10-05T17:53:02.604Z,78774.88
2022-10-05T17:55:35.098Z,78785.59
2022-10-05T17:58:30.967Z,78785.16
2022-10-05T18:01:00.773Z,78786.72
2022-10-05T18:03:53.286Z,78779.56
2022-10-05T18:06:36.086Z,78779.09
2022-10-05T18:09:23.866Z,78776.53
2022-10-05T18:12:16.607Z,78772.00
2022-10-05T18:14:57.907Z,78776.84
2022-10-05T18:17:42.566Z,78780.78
2022-10-05T18:20:27.404Z,78782.09
2022-10-05T18:23:24.818Z,78787.88
2022-10-05T18:26:08.603Z,78777.00
2022-10-05T18:29:15.082Z,78761.47
2022-10-05T18:32:02.046Z,78783.81
2022-10-05T18:34:44.077Z,78778.72
2022-10-05T18:37:44.066Z,78787.59
2022-10-05T18:40:41.198Z,78779.00
2022-10-05T18:43:36.957Z,78789.50
2022-10-05T18:46:18.442Z,78784.00
2022-10-05T18:48:59.169Z,78788.13
2022-10-05T18:51:52.183Z,78791.22
2022-10-05T18:54:50.132Z,78772.69
2022-10-05T18:57:46.079Z,78782.53
2022-10-05T19:00:30.052Z,78772.84
2022-10-05T19:03:21.969Z,78784.69
2022-10-05T19:06:01.596Z,78792.59
2022-10-05T19:09:05.968Z,78765.00
2022-10-05T19:11:50.771Z,78778.22
2022-10-05T19:14:26.648Z,78780.19
2022-10-05T19:17:08.111Z,78780.31
2022-10-05T19:19:58.271Z,78790.31
2022-10-05T19:22:46.794Z,78791.81
2022-10-05T19:25:38.814Z,78781.38
2022-10-05T19:28:29.834Z,78770.81
2022-10-05T19:31:24.640Z,78785.19
2022-10-05T19:34:10.660Z,78775.13
2022-10-05T19:36:55.770Z,78785.19
2022-10-05T19:39:51.943Z,78782.59
2022-10-05T19:42:42.606Z,78793.38
2022-10-05T19:45:29.608Z,78786.25
2022-10-05T19:48:08.367Z,78783.09
2022-10-05T19:50:41.377Z,78782.59
2022-10-05T19:53:25.197Z,78786.66
2022-10-05T19:55:56.372Z,78751.59
2022-10-05T19:58:32.399Z,78772.72
2022-10-05T20:01:05.857Z,78775.47
2022-10-05T20:03:39.042Z,78760.47
2022-10-05T20:06:11.925Z,78790.06
2022-10-05T20:08:46.997Z,78786.06
2022-10-05T20:11:24.171Z,78784.09
2022-10-05T20:13:56.520Z,78792.94
2022-10-05T20:16:54.374Z,78783.34
2022-10-05T20:19:55.525Z,78782.06
2022-10-05T20:22:30.708Z,78779.59
2022-10-05T20:25:14.630Z,78780.34
2022-10-05T20:27:57.156Z,78769.22
2022-10-05T20:30:32.325Z,78783.56
2022-10-05T20:33:11.395Z,78772.97
2022-10-05T20:35:40.746Z,78761.59
2022-10-05T20:38:09.429Z,78768.31
2022-10-05T20:40:40.948Z,78757.41
2022-10-05T20:43:09.817Z,78763.16
2022-10-05T20:45:43.542Z,78761.19
2022-10-05T20:51:24.760Z,78746.06
2022-10-05T20:53:56.222Z,78743.31
2022-10-05T20:56:28.020Z,78768.25
2022-10-05T20:58:57.529Z,78759.03
2022-10-05T21:01:31.313Z,78767.09
2022-10-05T21:04:00.345Z,78752.06
2022-10-05T21:06:29.771Z,78751.25
2022-10-05T21:08:59.943Z,78746.06
2022-10-05T21:11:30.115Z,78746.66
2022-10-05T21:14:04.763Z,78738.19
2022-10-05T21:16:38.618Z,78763.75
2022-10-05T21:19:13.025Z,78765.22
2022-10-05T21:21:44.546Z,78739.00
2022-10-05T21:24:16.709Z,78762.63
2022-10-05T21:26:48.522Z,78760.66
2022-10-05T21:29:19.866Z,78741.47
2022-10-05T21:31:49.591Z,78754.03
2022-10-05T21:34:18.577Z,78739.31
2022-10-05T21:36:47.265Z,78745.28
2022-10-05T21:42:59.053Z,78751.16
2022-10-05T21:45:30.437Z,78735.88
2022-10-05T21:47:59.760Z,78730.75
2022-10-05T21:50:28.864Z,78749.94
2022-10-05T21:52:59.291Z,78729.97
2022-10-05T21:55:29.151Z,78743.22
2022-10-05T21:58:01.717Z,78714.28
2022-10-05T22:00:32.383Z,78726.59
2022-10-05T22:03:02.632Z,78737.41
2022-10-05T22:05:31.621Z,78753.72
2022-10-05T22:08:01.541Z,78740.28
2022-10-05T22:10:30.560Z,78737.78
2022-10-05T22:13:04.628Z,78749.63
2022-10-05T22:15:34.407Z,78745.06
2022-10-05T22:18:03.281Z,78743.19
2022-10-05T22:20:35.699Z,78744.63
2022-10-05T22:23:05.155Z,78719.44
2022-10-05T22:25:35.069Z,78743.44
2022-10-05T22:28:05.470Z,78751.09
2022-10-05T22:30:35.518Z,78745.16
2022-10-05T22:33:04.604Z,78754.03
2022-10-05T22:35:36.807Z,78751.47
2022-10-05T22:38:06.668Z,78752.44
2022-10-05T22:40:36.122Z,78763.09
2022-10-05T22:43:05.553Z,78750.81
2022-10-05T22:45:34.441Z,78749.75
2022-10-05T22:48:03.837Z,78738.34
2022-10-05T22:50:32.600Z,78740.34
2022-10-05T22:53:01.763Z,78769.41
2022-10-05T22:55:30.579Z,78729.47
2022-10-05T22:58:00.348Z,78731.75
2022-10-05T23:00:53.438Z,78742.91
2022-10-05T23:03:18.588Z,78759.44
2022-10-05T23:05:47.684Z,78760.22
2022-10-05T23:08:17.815Z,78751.41
2022-10-05T23:10:46.716Z,78758.69
2022-10-05T23:13:16.829Z,78737.78
2022-10-05T23:15:45.842Z,78758.31
2022-10-05T23:18:17.683Z,78768.13
2022-10-05T23:20:46.866Z,78744.59
2022-10-05T23:23:15.928Z,78744.50
2022-10-05T23:25:45.524Z,78755.22
2022-10-05T23:28:14.465Z,78758.69
2022-10-05T23:30:43.657Z,78782.38
2022-10-05T23:33:12.486Z,78771.59
2022-10-05T23:35:41.347Z,78770.94
2022-10-05T23:38:10.505Z,78750.59
2022-10-05T23:40:39.515Z,78766.94
2022-10-05T23:43:08.426Z,78790.81
2022-10-05T23:45:37.296Z,78786.88
2022-10-05T23:48:06.314Z,78784.28
2022-10-05T23:50:35.599Z,78777.78
2022-10-05T23:53:04.576Z,78776.53
2022-10-05T23:55:34.247Z,78794.13
2022-10-05T23:58:02.982Z,78792.63
